sensor_id;sensor_type;location;lat;lon;timestamp;P1;durP1;ratioP1;P2;durP2;ratioP2
59207;SDS011;44977;53.132;6.408;2023-08-17T00:02:13;8.23;;;2.65;;
59207;SDS011;44977;53.132;6.408;2023-08-17T00:07:14;7.57;;;2.65;;
59207;SDS011;44977;53.132;6.408;2023-08-17T00:12:14;8.43;;;2.50;;
59207;SDS011;44977;53.132;6.408;2023-08-17T00:17:15;7.03;;;2.60;;
59207;SDS011;44977;53.132;6.408;2023-08-17T00:22:16;6.35;;;2.05;;
59207;SDS011;44977;53.132;6.408;2023-08-17T00:27:16;9.07;;;2.60;;
59207;SDS011;44977;53.132;6.408;2023-08-17T00:32:17;6.82;;;2.42;;
59207;SDS011;44977;53.132;6.408;2023-08-17T00:37:18;8.13;;;2.63;;
59207;SDS011;44977;53.132;6.408;2023-08-17T00:42:18;8.23;;;2.30;;
59207;SDS011;44977;53.132;6.408;2023-08-17T00:47:19;8.50;;;2.22;;
59207;SDS011;44977;53.132;6.408;2023-08-17T00:52:20;6.00;;;2.53;;
59207;SDS011;44977;53.132;6.408;2023-08-17T00:57:20;8.82;;;3.05;;
59207;SDS011;44977;53.132;6.408;2023-08-17T01:02:22;6.07;;;2.08;;
59207;SDS011;44977;53.132;6.408;2023-08-17T01:07:23;6.82;;;2.60;;
59207;SDS011;44977;53.132;6.408;2023-08-17T01:12:30;6.72;;;2.60;;
59207;SDS011;44977;53.132;6.408;2023-08-17T01:23:05;7.35;;;2.90;;
59207;SDS011;44977;53.132;6.408;2023-08-17T01:28:07;7.68;;;2.70;;
59207;SDS011;44977;53.132;6.408;2023-08-17T01:33:08;8.48;;;2.70;;
59207;SDS011;44977;53.132;6.408;2023-08-17T01:38:12;8.70;;;2.63;;
59207;SDS011;44977;53.132;6.408;2023-08-17T01:43:17;6.78;;;2.75;;
59207;SDS011;44977;53.132;6.408;2023-08-17T01:48:18;7.07;;;2.97;;
59207;SDS011;44977;53.132;6.408;2023-08-17T01:53:19;6.70;;;2.97;;
59207;SDS011;44977;53.132;6.408;2023-08-17T01:58:20;6.75;;;2.80;;
59207;SDS011;44977;53.132;6.408;2023-08-17T02:03:20;7.32;;;3.15;;
59207;SDS011;44977;53.132;6.408;2023-08-17T02:08:21;7.72;;;3.10;;
59207;SDS011;44977;53.132;6.408;2023-08-17T02:13:22;9.32;;;3.40;;
59207;SDS011;44977;53.132;6.408;2023-08-17T02:18:23;9.10;;;3.15;;
59207;SDS011;44977;53.132;6.408;2023-08-17T02:23:23;5.28;;;2.60;;
59207;SDS011;44977;53.132;6.408;2023-08-17T02:28:24;6.68;;;2.67;;
59207;SDS011;44977;53.132;6.408;2023-08-17T02:33:25;6.65;;;2.40;;
59207;SDS011;44977;53.132;6.408;2023-08-17T02:38:25;8.27;;;3.05;;
59207;SDS011;44977;53.132;6.408;2023-08-17T02:43:26;6.50;;;2.90;;
59207;SDS011;44977;53.132;6.408;2023-08-17T02:48:27;6.95;;;3.00;;
59207;SDS011;44977;53.132;6.408;2023-08-17T02:53:28;6.30;;;2.50;;
59207;SDS011;44977;53.132;6.408;2023-08-17T02:58:28;6.20;;;2.63;;
59207;SDS011;44977;53.132;6.408;2023-08-17T03:03:29;7.97;;;2.83;;
59207;SDS011;44977;53.132;6.408;2023-08-17T03:08:30;7.57;;;2.58;;
59207;SDS011;44977;53.132;6.408;2023-08-17T03:13:31;5.78;;;2.65;;
59207;SDS011;44977;53.132;6.408;2023-08-17T03:18:31;8.70;;;3.03;;
59207;SDS011;44977;53.132;6.408;2023-08-17T03:23:32;10.18;;;2.92;;
59207;SDS011;44977;53.132;6.408;2023-08-17T03:28:33;7.38;;;2.60;;
59207;SDS011;44977;53.132;6.408;2023-08-17T03:33:34;6.40;;;2.33;;
59207;SDS011;44977;53.132;6.408;2023-08-17T03:38:35;7.25;;;2.45;;
59207;SDS011;44977;53.132;6.408;2023-08-17T03:43:37;5.72;;;2.45;;
59207;SDS011;44977;53.132;6.408;2023-08-17T03:48:38;6.43;;;2.28;;
59207;SDS011;44977;53.132;6.408;2023-08-17T03:53:39;6.43;;;2.72;;
59207;SDS011;44977;53.132;6.408;2023-08-17T03:58:40;6.60;;;2.15;;
59207;SDS011;44977;53.132;6.408;2023-08-17T04:03:41;6.75;;;2.45;;
59207;SDS011;44977;53.132;6.408;2023-08-17T04:08:42;5.40;;;2.03;;
59207;SDS011;44977;53.132;6.408;2023-08-17T04:13:43;7.93;;;2.50;;
59207;SDS011;44977;53.132;6.408;2023-08-17T04:18:43;5.78;;;2.10;;
59207;SDS011;44977;53.132;6.408;2023-08-17T04:23:44;7.88;;;2.33;;
59207;SDS011;44977;53.132;6.408;2023-08-17T04:28:44;6.63;;;2.33;;
59207;SDS011;44977;53.132;6.408;2023-08-17T04:33:45;7.10;;;2.53;;
59207;SDS011;44977;53.132;6.408;2023-08-17T04:38:46;6.22;;;2.42;;
59207;SDS011;44977;53.132;6.408;2023-08-17T04:43:46;8.27;;;2.65;;
59207;SDS011;44977;53.132;6.408;2023-08-17T04:48:49;7.20;;;2.45;;
59207;SDS011;44977;53.132;6.408;2023-08-17T04:53:50;7.60;;;2.50;;
59207;SDS011;44977;53.132;6.408;2023-08-17T04:58:50;7.80;;;2.50;;
59207;SDS011;44977;53.132;6.408;2023-08-17T05:03:51;7.10;;;2.70;;
59207;SDS011;44977;53.132;6.408;2023-08-17T05:08:52;9.27;;;2.50;;
59207;SDS011;44977;53.132;6.408;2023-08-17T05:13:53;8.00;;;2.50;;
59207;SDS011;44977;53.132;6.408;2023-08-17T05:18:54;5.93;;;2.20;;
59207;SDS011;44977;53.132;6.408;2023-08-17T05:23:54;6.28;;;2.38;;
59207;SDS011;44977;53.132;6.408;2023-08-17T05:28:55;7.05;;;2.13;;
59207;SDS011;44977;53.132;6.408;2023-08-17T05:33:56;7.03;;;2.20;;
59207;SDS011;44977;53.132;6.408;2023-08-17T05:38:56;6.88;;;2.53;;
59207;SDS011;44977;53.132;6.408;2023-08-17T05:43:57;6.88;;;2.50;;
59207;SDS011;44977;53.132;6.408;2023-08-17T05:48:58;6.57;;;2.40;;
59207;SDS011;44977;53.132;6.408;2023-08-17T05:53:59;6.53;;;2.55;;
59207;SDS011;44977;53.132;6.408;2023-08-17T05:58:59;7.68;;;2.38;;
59207;SDS011;44977;53.132;6.408;2023-08-17T06:04:00;6.88;;;2.13;;
59207;SDS011;44977;53.132;6.408;2023-08-17T06:09:01;6.75;;;2.40;;
59207;SDS011;44977;53.132;6.408;2023-08-17T06:14:02;7.40;;;2.38;;
59207;SDS011;44977;53.132;6.408;2023-08-17T06:19:03;6.25;;;2.25;;
59207;SDS011;44977;53.132;6.408;2023-08-17T06:24:04;5.28;;;2.05;;
59207;SDS011;44977;53.132;6.408;2023-08-17T06:29:04;8.98;;;2.50;;
59207;SDS011;44977;53.132;6.408;2023-08-17T06:34:05;7.55;;;2.40;;
59207;SDS011;44977;53.132;6.408;2023-08-17T06:39:06;7.00;;;2.17;;
59207;SDS011;44977;53.132;6.408;2023-08-17T06:44:08;6.22;;;2.20;;
59207;SDS011;44977;53.132;6.408;2023-08-17T06:49:10;6.90;;;2.13;;
59207;SDS011;44977;53.132;6.408;2023-08-17T06:54:11;6.85;;;1.90;;
59207;SDS011;44977;53.132;6.408;2023-08-17T06:59:12;6.57;;;2.15;;
59207;SDS011;44977;53.132;6.408;2023-08-17T07:04:12;7.93;;;2.10;;
59207;SDS011;44977;53.132;6.408;2023-08-17T07:09:13;5.97;;;2.00;;
59207;SDS011;44977;53.132;6.408;2023-08-17T07:14:14;8.13;;;2.13;;
59207;SDS011;44977;53.132;6.408;2023-08-17T07:19:14;7.18;;;2.00;;
59207;SDS011;44977;53.132;6.408;2023-08-17T07:24:15;5.47;;;2.10;;
59207;SDS011;44977;53.132;6.408;2023-08-17T07:29:16;6.45;;;1.90;;
59207;SDS011;44977;53.132;6.408;2023-08-17T07:34:17;6.40;;;1.63;;
59207;SDS011;44977;53.132;6.408;2023-08-17T07:39:17;6.00;;;1.70;;
59207;SDS011;44977;53.132;6.408;2023-08-17T07:44:18;6.70;;;1.80;;
59207;SDS011;44977;53.132;6.408;2023-08-17T07:49:19;8.85;;;2.05;;
59207;SDS011;44977;53.132;6.408;2023-08-17T07:54:20;5.80;;;1.70;;
59207;SDS011;44977;53.132;6.408;2023-08-17T07:59:21;5.50;;;1.60;;
59207;SDS011;44977;53.132;6.408;2023-08-17T08:04:21;5.43;;;1.42;;
59207;SDS011;44977;53.132;6.408;2023-08-17T08:09:22;7.15;;;1.73;;
59207;SDS011;44977;53.132;6.408;2023-08-17T08:14:23;6.82;;;1.65;;
59207;SDS011;44977;53.132;6.408;2023-08-17T08:19:23;4.93;;;1.45;;
59207;SDS011;44977;53.132;6.408;2023-08-17T08:24:24;6.68;;;1.50;;
59207;SDS011;44977;53.132;6.408;2023-08-17T08:29:25;4.97;;;1.45;;
59207;SDS011;44977;53.132;6.408;2023-08-17T08:34:26;5.13;;;1.30;;
59207;SDS011;44977;53.132;6.408;2023-08-17T08:39:26;4.45;;;1.30;;
59207;SDS011;44977;53.132;6.408;2023-08-17T08:44:27;4.53;;;1.30;;
59207;SDS011;44977;53.132;6.408;2023-08-17T08:49:28;4.63;;;1.50;;
59207;SDS011;44977;53.132;6.408;2023-08-17T08:54:30;6.28;;;1.40;;
59207;SDS011;44977;53.132;6.408;2023-08-17T08:59:31;6.30;;;1.80;;
59207;SDS011;44977;53.132;6.408;2023-08-17T09:04:34;5.60;;;1.50;;
59207;SDS011;44977;53.132;6.408;2023-08-17T09:09:35;5.07;;;1.45;;
59207;SDS011;44977;53.132;6.408;2023-08-17T09:14:36;5.55;;;1.30;;
59207;SDS011;44977;53.132;6.408;2023-08-17T09:19:37;6.43;;;1.40;;
59207;SDS011;44977;53.132;6.408;2023-08-17T09:24:38;6.93;;;1.65;;
59207;SDS011;44977;53.132;6.408;2023-08-17T09:29:40;9.73;;;1.70;;
59207;SDS011;44977;53.132;6.408;2023-08-17T09:34:43;3.55;;;1.25;;
59207;SDS011;44977;53.132;6.408;2023-08-17T09:39:44;8.57;;;1.60;;
59207;SDS011;44977;53.132;6.408;2023-08-17T09:44:45;4.80;;;1.50;;
59207;SDS011;44977;53.132;6.408;2023-08-17T09:49:52;6.00;;;1.60;;
59207;SDS011;44977;53.132;6.408;2023-08-17T09:54:53;5.70;;;1.30;;
59207;SDS011;44977;53.132;6.408;2023-08-17T09:59:55;3.85;;;1.30;;
59207;SDS011;44977;53.132;6.408;2023-08-17T10:04:56;6.72;;;2.00;;
59207;SDS011;44977;53.132;6.408;2023-08-17T10:10:05;6.10;;;1.60;;
59207;SDS011;44977;53.132;6.408;2023-08-17T10:15:10;4.95;;;1.48;;
59207;SDS011;44977;53.132;6.408;2023-08-17T10:20:12;6.10;;;1.48;;
59207;SDS011;44977;53.132;6.408;2023-08-17T10:25:14;5.43;;;1.50;;
59207;SDS011;44977;53.132;6.408;2023-08-17T10:30:16;7.30;;;1.80;;
59207;SDS011;44977;53.132;6.408;2023-08-17T10:35:17;5.72;;;1.45;;
59207;SDS011;44977;53.132;6.408;2023-08-17T10:40:24;6.63;;;1.40;;
59207;SDS011;44977;53.132;6.408;2023-08-17T10:50:29;7.47;;;1.80;;
59207;SDS011;44977;53.132;6.408;2023-08-17T10:55:36;5.13;;;1.42;;
59207;SDS011;44977;53.132;6.408;2023-08-17T11:00:40;6.25;;;1.40;;
59207;SDS011;44977;53.132;6.408;2023-08-17T11:16:02;6.00;;;1.75;;
59207;SDS011;44977;53.132;6.408;2023-08-17T11:21:07;6.28;;;1.58;;
59207;SDS011;44977;53.132;6.408;2023-08-17T11:26:11;5.63;;;1.63;;
59207;SDS011;44977;53.132;6.408;2023-08-17T11:31:12;4.55;;;1.52;;
59207;SDS011;44977;53.132;6.408;2023-08-17T11:36:15;5.18;;;1.52;;
59207;SDS011;44977;53.132;6.408;2023-08-17T11:41:16;6.65;;;1.80;;
59207;SDS011;44977;53.132;6.408;2023-08-17T11:46:19;5.30;;;1.70;;
59207;SDS011;44977;53.132;6.408;2023-08-17T11:51:28;5.32;;;1.55;;
59207;SDS011;44977;53.132;6.408;2023-08-17T11:56:31;5.85;;;1.80;;
59207;SDS011;44977;53.132;6.408;2023-08-17T12:01:32;5.85;;;1.92;;
59207;SDS011;44977;53.132;6.408;2023-08-17T12:06:35;7.03;;;2.63;;
59207;SDS011;44977;53.132;6.408;2023-08-17T12:11:44;7.65;;;2.20;;
59207;SDS011;44977;53.132;6.408;2023-08-17T12:16:48;7.38;;;2.55;;
59207;SDS011;44977;53.132;6.408;2023-08-17T12:21:49;4.55;;;1.70;;
59207;SDS011;44977;53.132;6.408;2023-08-17T12:26:50;5.65;;;1.77;;
59207;SDS011;44977;53.132;6.408;2023-08-17T12:31:51;4.55;;;2.05;;
59207;SDS011;44977;53.132;6.408;2023-08-17T12:36:53;6.90;;;1.95;;
59207;SDS011;44977;53.132;6.408;2023-08-17T12:41:54;6.57;;;2.22;;
59207;SDS011;44977;53.132;6.408;2023-08-17T12:46:54;5.03;;;1.85;;
59207;SDS011;44977;53.132;6.408;2023-08-17T12:51:55;6.18;;;2.00;;
59207;SDS011;44977;53.132;6.408;2023-08-17T12:56:56;5.13;;;1.60;;
59207;SDS011;44977;53.132;6.408;2023-08-17T13:01:56;5.53;;;1.95;;
59207;SDS011;44977;53.132;6.408;2023-08-17T13:06:57;5.78;;;2.13;;
59207;SDS011;44977;53.132;6.408;2023-08-17T13:11:58;6.93;;;2.00;;
59207;SDS011;44977;53.132;6.408;2023-08-17T13:16:58;5.80;;;1.80;;
59207;SDS011;44977;53.132;6.408;2023-08-17T13:21:59;6.53;;;1.80;;
59207;SDS011;44977;53.132;6.408;2023-08-17T13:27:00;6.70;;;2.17;;
59207;SDS011;44977;53.132;6.408;2023-08-17T13:32:00;7.65;;;2.10;;
59207;SDS011;44977;53.132;6.408;2023-08-17T13:37:01;6.55;;;2.05;;
59207;SDS011;44977;53.132;6.408;2023-08-17T13:42:03;6.25;;;1.80;;
59207;SDS011;44977;53.132;6.408;2023-08-17T13:47:04;6.13;;;2.53;;
59207;SDS011;44977;53.132;6.408;2023-08-17T13:52:04;6.65;;;1.92;;
59207;SDS011;44977;53.132;6.408;2023-08-17T13:57:05;6.45;;;1.80;;
59207;SDS011;44977;53.132;6.408;2023-08-17T14:02:06;7.43;;;2.28;;
59207;SDS011;44977;53.132;6.408;2023-08-17T14:07:08;6.15;;;1.92;;
59207;SDS011;44977;53.132;6.408;2023-08-17T14:12:09;5.38;;;1.98;;
59207;SDS011;44977;53.132;6.408;2023-08-17T14:17:09;5.28;;;1.92;;
59207;SDS011;44977;53.132;6.408;2023-08-17T14:22:10;7.18;;;2.35;;
59207;SDS011;44977;53.132;6.408;2023-08-17T14:27:11;7.32;;;2.53;;
59207;SDS011;44977;53.132;6.408;2023-08-17T14:32:11;7.85;;;2.63;;
59207;SDS011;44977;53.132;6.408;2023-08-17T14:37:12;6.03;;;2.45;;
59207;SDS011;44977;53.132;6.408;2023-08-17T14:42:13;7.65;;;2.50;;
59207;SDS011;44977;53.132;6.408;2023-08-17T14:47:13;7.80;;;2.60;;
59207;SDS011;44977;53.132;6.408;2023-08-17T14:52:14;6.70;;;2.40;;
59207;SDS011;44977;53.132;6.408;2023-08-17T14:57:15;6.22;;;2.58;;
59207;SDS011;44977;53.132;6.408;2023-08-17T15:02:15;6.78;;;2.80;;
59207;SDS011;44977;53.132;6.408;2023-08-17T15:07:18;5.03;;;2.40;;
59207;SDS011;44977;53.132;6.408;2023-08-17T15:12:18;7.32;;;2.70;;
59207;SDS011;44977;53.132;6.408;2023-08-17T15:17:19;7.15;;;2.40;;
59207;SDS011;44977;53.132;6.408;2023-08-17T15:22:20;7.55;;;2.55;;
59207;SDS011;44977;53.132;6.408;2023-08-17T15:27:20;5.72;;;2.33;;
59207;SDS011;44977;53.132;6.408;2023-08-17T15:32:21;7.70;;;2.80;;
59207;SDS011;44977;53.132;6.408;2023-08-17T15:37:22;7.00;;;3.00;;
59207;SDS011;44977;53.132;6.408;2023-08-17T15:42:23;8.25;;;3.00;;
59207;SDS011;44977;53.132;6.408;2023-08-17T15:47:24;9.90;;;3.10;;
59207;SDS011;44977;53.132;6.408;2023-08-17T15:52:24;7.22;;;3.45;;
59207;SDS011;44977;53.132;6.408;2023-08-17T15:57:25;8.35;;;3.53;;
59207;SDS011;44977;53.132;6.408;2023-08-17T16:02:26;7.60;;;2.85;;
59207;SDS011;44977;53.132;6.408;2023-08-17T16:07:26;8.27;;;3.75;;
59207;SDS011;44977;53.132;6.408;2023-08-17T16:12:27;7.80;;;3.40;;
59207;SDS011;44977;53.132;6.408;2023-08-17T16:17:28;9.23;;;4.57;;
59207;SDS011;44977;53.132;6.408;2023-08-17T16:22:29;8.98;;;4.78;;
59207;SDS011;44977;53.132;6.408;2023-08-17T16:27:30;9.07;;;4.80;;
59207;SDS011;44977;53.132;6.408;2023-08-17T16:32:30;7.97;;;4.40;;
59207;SDS011;44977;53.132;6.408;2023-08-17T16:37:32;7.80;;;4.30;;
59207;SDS011;44977;53.132;6.408;2023-08-17T16:42:32;7.30;;;3.85;;
59207;SDS011;44977;53.132;6.408;2023-08-17T16:47:33;8.32;;;4.38;;
59207;SDS011;44977;53.132;6.408;2023-08-17T16:52:34;9.00;;;4.57;;
59207;SDS011;44977;53.132;6.408;2023-08-17T16:57:34;6.60;;;3.75;;
59207;SDS011;44977;53.132;6.408;2023-08-17T17:02:35;7.47;;;3.78;;
59207;SDS011;44977;53.132;6.408;2023-08-17T17:07:36;6.25;;;3.70;;
59207;SDS011;44977;53.132;6.408;2023-08-17T17:12:37;7.43;;;3.88;;
59207;SDS011;44977;53.132;6.408;2023-08-17T17:17:39;7.68;;;3.85;;
59207;SDS011;44977;53.132;6.408;2023-08-17T17:22:40;8.93;;;4.28;;
59207;SDS011;44977;53.132;6.408;2023-08-17T17:27:41;7.70;;;3.63;;
59207;SDS011;44977;53.132;6.408;2023-08-17T17:32:41;7.70;;;3.60;;
59207;SDS011;44977;53.132;6.408;2023-08-17T17:37:42;7.65;;;3.42;;
59207;SDS011;44977;53.132;6.408;2023-08-17T17:42:43;7.40;;;3.95;;
59207;SDS011;44977;53.132;6.408;2023-08-17T17:47:43;10.10;;;4.03;;
59207;SDS011;44977;53.132;6.408;2023-08-17T17:52:44;7.25;;;4.05;;
59207;SDS011;44977;53.132;6.408;2023-08-17T17:57:45;8.55;;;3.92;;
59207;SDS011;44977;53.132;6.408;2023-08-17T18:02:45;8.23;;;4.28;;
59207;SDS011;44977;53.132;6.408;2023-08-17T18:07:46;7.38;;;4.03;;
59207;SDS011;44977;53.132;6.408;2023-08-17T18:12:47;8.23;;;3.95;;
59207;SDS011;44977;53.132;6.408;2023-08-17T18:17:47;7.82;;;4.03;;
59207;SDS011;44977;53.132;6.408;2023-08-17T18:22:48;6.80;;;3.63;;
59207;SDS011;44977;53.132;6.408;2023-08-17T18:27:49;9.48;;;4.05;;
59207;SDS011;44977;53.132;6.408;2023-08-17T18:32:50;8.38;;;4.30;;
59207;SDS011;44977;53.132;6.408;2023-08-17T18:37:50;6.93;;;3.88;;
59207;SDS011;44977;53.132;6.408;2023-08-17T18:42:51;7.30;;;4.15;;
59207;SDS011;44977;53.132;6.408;2023-08-17T18:47:52;7.15;;;3.80;;
59207;SDS011;44977;53.132;6.408;2023-08-17T18:52:52;8.18;;;4.20;;
59207;SDS011;44977;53.132;6.408;2023-08-17T18:57:53;7.40;;;3.78;;
59207;SDS011;44977;53.132;6.408;2023-08-17T19:02:55;8.00;;;4.00;;
59207;SDS011;44977;53.132;6.408;2023-08-17T19:07:56;7.47;;;4.05;;
59207;SDS011;44977;53.132;6.408;2023-08-17T19:12:57;6.97;;;3.88;;
59207;SDS011;44977;53.132;6.408;2023-08-17T19:17:58;6.50;;;3.72;;
59207;SDS011;44977;53.132;6.408;2023-08-17T19:22:59;6.57;;;3.42;;
59207;SDS011;44977;53.132;6.408;2023-08-17T19:27:59;6.55;;;3.67;;
59207;SDS011;44977;53.132;6.408;2023-08-17T19:33:00;6.57;;;3.42;;
59207;SDS011;44977;53.132;6.408;2023-08-17T19:38:01;5.53;;;3.40;;
59207;SDS011;44977;53.132;6.408;2023-08-17T19:43:01;6.97;;;3.90;;
59207;SDS011;44977;53.132;6.408;2023-08-17T19:48:02;6.45;;;4.00;;
59207;SDS011;44977;53.132;6.408;2023-08-17T19:53:03;7.47;;;4.20;;
59207;SDS011;44977;53.132;6.408;2023-08-17T19:58:04;7.40;;;4.53;;
59207;SDS011;44977;53.132;6.408;2023-08-17T20:03:05;6.75;;;4.10;;
59207;SDS011;44977;53.132;6.408;2023-08-17T20:08:06;6.80;;;3.92;;
59207;SDS011;44977;53.132;6.408;2023-08-17T20:13:07;6.32;;;4.30;;
59207;SDS011;44977;53.132;6.408;2023-08-17T20:18:07;6.72;;;3.97;;
59207;SDS011;44977;53.132;6.408;2023-08-17T20:23:09;7.63;;;3.92;;
59207;SDS011;44977;53.132;6.408;2023-08-17T20:28:10;5.95;;;3.05;;
59207;SDS011;44977;53.132;6.408;2023-08-17T20:33:11;6.18;;;3.35;;
59207;SDS011;44977;53.132;6.408;2023-08-17T20:38:12;5.40;;;3.20;;
59207;SDS011;44977;53.132;6.408;2023-08-17T20:43:13;5.97;;;2.83;;
59207;SDS011;44977;53.132;6.408;2023-08-17T20:48:13;6.43;;;3.28;;
59207;SDS011;44977;53.132;6.408;2023-08-17T20:53:14;6.28;;;3.22;;
59207;SDS011;44977;53.132;6.408;2023-08-17T20:58:15;6.05;;;3.58;;
59207;SDS011;44977;53.132;6.408;2023-08-17T21:03:16;5.85;;;3.00;;
59207;SDS011;44977;53.132;6.408;2023-08-17T21:08:17;6.78;;;3.28;;
59207;SDS011;44977;53.132;6.408;2023-08-17T21:13:17;6.18;;;3.22;;
59207;SDS011;44977;53.132;6.408;2023-08-17T21:18:18;5.57;;;3.03;;
59207;SDS011;44977;53.132;6.408;2023-08-17T21:23:19;5.40;;;3.05;;
59207;SDS011;44977;53.132;6.408;2023-08-17T21:28:19;6.07;;;3.05;;
59207;SDS011;44977;53.132;6.408;2023-08-17T21:33:20;5.15;;;2.50;;
59207;SDS011;44977;53.132;6.408;2023-08-17T21:38:21;5.95;;;3.00;;
59207;SDS011;44977;53.132;6.408;2023-08-17T21:43:21;4.85;;;2.25;;
59207;SDS011;44977;53.132;6.408;2023-08-17T21:48:22;5.63;;;2.50;;
59207;SDS011;44977;53.132;6.408;2023-08-17T21:53:23;5.03;;;2.22;;
59207;SDS011;44977;53.132;6.408;2023-08-17T21:58:24;5.53;;;2.25;;
59207;SDS011;44977;53.132;6.408;2023-08-17T22:03:24;4.95;;;2.13;;
59207;SDS011;44977;53.132;6.408;2023-08-17T22:08:25;4.80;;;1.95;;
59207;SDS011;44977;53.132;6.408;2023-08-17T22:13:25;4.88;;;1.67;;
59207;SDS011;44977;53.132;6.408;2023-08-17T22:18:26;5.38;;;1.75;;
59207;SDS011;44977;53.132;6.408;2023-08-17T22:23:27;3.63;;;1.77;;
59207;SDS011;44977;53.132;6.408;2023-08-17T22:28:27;5.63;;;1.90;;
59207;SDS011;44977;53.132;6.408;2023-08-17T22:33:28;5.03;;;2.05;;
59207;SDS011;44977;53.132;6.408;2023-08-17T22:38:29;3.85;;;1.60;;
59207;SDS011;44977;53.132;6.408;2023-08-17T22:43:30;4.90;;;1.70;;
59207;SDS011;44977;53.132;6.408;2023-08-17T22:48:30;3.78;;;1.75;;
59207;SDS011;44977;53.132;6.408;2023-08-17T22:53:31;5.03;;;1.65;;
59207;SDS011;44977;53.132;6.408;2023-08-17T22:58:32;4.50;;;1.70;;
59207;SDS011;44977;53.132;6.408;2023-08-17T23:03:32;4.55;;;1.48;;
59207;SDS011;44977;53.132;6.408;2023-08-17T23:08:33;3.90;;;1.60;;
59207;SDS011;44977;53.132;6.408;2023-08-17T23:13:35;2.65;;;1.35;;
59207;SDS011;44977;53.132;6.408;2023-08-17T23:18:36;3.95;;;1.40;;
59207;SDS011;44977;53.132;6.408;2023-08-17T23:23:36;4.38;;;1.60;;
59207;SDS011;44977;53.132;6.408;2023-08-17T23:28:37;4.05;;;1.42;;
59207;SDS011;44977;53.132;6.408;2023-08-17T23:33:38;5.78;;;1.80;;
59207;SDS011;44977;53.132;6.408;2023-08-17T23:38:38;3.53;;;1.40;;
59207;SDS011;44977;53.132;6.408;2023-08-17T23:43:39;4.65;;;1.52;;
59207;SDS011;44977;53.132;6.408;2023-08-17T23:48:40;4.38;;;1.70;;
59207;SDS011;44977;53.132;6.408;2023-08-17T23:53:41;9.68;;;1.95;;
59207;SDS011;44977;53.132;6.408;2023-08-17T23:58:42;4.25;;;1.85;;
